27. September 2022

Uhrzeit Code Wetter Temp. Sichtweite Wolkendecke Wind METAR/SPECI
20:00
V
22 °C 30 mi 30.000 ft 170° 170° 5 kt METAR CYYC 280200Z 17005KT 30SM FEW085 BKN300 22/01 A2996 RMK AC1CI5 AC TR SLP140 DENSITY ALT 5200FT
19:00
V
25 °C 15 mi 30.000 ft 200° 200° 5 kt METAR CYYC 280100Z 20005KT 15SM BKN300 25/00 A2995 RMK CI7 SLP136 DENSITY ALT 5600FT
18:00
V
26 °C 15 mi 30.000 ft 290° 290° 6 kt METAR CYYC 280000Z 29006KT 15SM BKN300 26/M00 A2994 RMK CI6 SLP133 DENSITY ALT 5700FT
17:00
V
27 °C 15 mi 30.000 ft 300° 300° 14 kt METAR CYYC 272300Z 30014KT 15SM BKN300 27/M01 A2995 RMK CI7 SLP140 DENSITY ALT 5800FT
16:00
V
27 °C 15 mi 30.000 ft 270° 270° 8 - 16 kt METAR CYYC 272200Z 27008G16KT 240V330 15SM OVC300 27/M01 A2996 RMK CI8 SLP142 DENSITY ALT 5800FT
15:17
V
26 °C 15 mi 30.000 ft 310° 310° 11 - 16 kt METAR CYYC 272117Z 31011G16KT 250V330 15SM BKN300 26/M01 A2997 RMK CI7 WSHFT 2100 SLP143 DENSITY ALT 5700FT
15:00
V
27 °C 15 mi 30.000 ft 240° 240° 8 kt METAR CYYC 272100Z 24008KT 200V270 15SM BKN300 27/M00 A2997 RMK CI6 SLP142 DENSITY ALT 5700FT
14:00
V
26 °C 15 mi 30.000 ft 300° 300° 9 kt METAR CYYC 272000Z 30009KT 260V350 15SM BKN300 26/M01 A2999 RMK CI5 SLP149 DENSITY ALT 5600FT
13:00
V
26 °C 15 mi - 290° 290° 9 kt METAR CYYC 271900Z 29009KT 260V330 15SM FEW100 FEW300 26/M01 A3000 RMK ACC1CI2 ACC TR SLP153 DENSITY ALT 5600FT
12:00
V
24 °C 15 mi - 280° 280° 10 - 16 kt METAR CYYC 271800Z 28010G16KT 15SM FEW100 FEW300 24/01 A3001 RMK ACC1CI1 ACC TR SLP155 DENSITY ALT 5400FT
11:00
V
23 °C 15 mi - 280° 280° 6 kt METAR CYYC 271700Z 28006KT 15SM FEW100 FEW300 23/04 A3002 RMK ACC1CI1 CI TR SLP159 DENSITY ALT 5200FT
10:00
V
18 °C 15 mi - 190° 190° 5 kt METAR CYYC 271600Z 19005KT 150V220 15SM FEW100 18/06 A3001 RMK ACC1 CB TOPS DIST NE SLP164 DENSITY ALT 4800FT
09:00
V
16 °C 15 mi - 220° 220° 6 kt METAR CYYC 271500Z 22006KT 210V270 15SM FEW100 16/04 A3001 RMK ACC1 CB TOP DIST NE SLP162 DENSITY ALT 4500FT
08:00
V
15 °C 40 mi - 250° 250° 4 kt METAR CYYC 271400Z 25004KT 40SM FEW100 15/04 A3000 RMK ACC1 SLP159 DENSITY ALT 4400FT
07:00
V
13 °C 15 mi 10.000 ft 220° 220° 6 kt METAR CYYC 271300Z 22006KT 15SM BKN100 13/05 A3000 RMK AC4 VIRGA NE / TCU ASOCTD N-NE MOVG N SLP159 DENSITY ALT 4100FT
06:00
V
12 °C 15 mi - 240° 240° 4 kt METAR CYYC 271200Z 24004KT 200V270 15SM SCT095 12/05 A3000 RMK AC3 SLP156 DENSITY ALT 4100FT
05:00
V
9 °C 15 mi - 190° 190° 4 kt METAR CYYC 271100Z 19004KT 15SM SCT110 09/04 A3000 RMK AC3 SLP161 DENSITY ALT 3700FT
04:00
V
11 °C 15 mi - Var Var 2 kt METAR CYYC 271000Z VRB02KT 15SM FEW120 11/04 A3001 RMK AC1 SLP163 DENSITY ALT 3900FT
03:00
V
12 °C 15 mi - Var 000° 0 kt METAR CYYC 270900Z 00000KT 15SM FEW220 12/03 A3002 RMK CI1 SLP165 DENSITY ALT 4000FT
02:00
V
13 °C 15 mi - Var 000° 0 kt METAR CYYC 270800Z 00000KT 15SM FEW110 SCT220 13/03 A3004 RMK AC1CI2 SLP170 DENSITY ALT 4200FT
01:00
V
15 °C 15 mi 23.000 ft 150° 150° 7 kt METAR CYYC 270700Z 15007KT 15SM SCT110 OVC230 15/03 A3005 RMK AC3CI4 SLP174 DENSITY ALT 4300FT
00:00
V
16 °C 15 mi - 150° 150° 9 kt METAR CYYC 270600Z 15009KT 15SM SCT120 16/03 A3006 RMK AC4 SLP180 DENSITY ALT 4400FT

26. September 2022

Uhrzeit Code Wetter Temp. Sichtweite Wolkendecke Wind METAR/SPECI
23:00
V
16 °C 15 mi 12.000 ft 170° 170° 8 kt METAR CYYC 270500Z 17008KT 15SM BKN120 16/03 A3008 RMK AC6 SLP188 DENSITY ALT 4400FT
22:00
V
16 °C 15 mi - 190° 190° 5 kt METAR CYYC 270400Z 19005KT 15SM SCT280 16/04 A3008 RMK CI4 SLP192 DENSITY ALT 4400FT
21:00
V
18 °C 15 mi - 140° 140° 9 kt METAR CYYC 270300Z 14009KT 15SM FEW280 18/04 A3008 RMK CI1 SLP194 DENSITY ALT 4700FT
20:00
V
20 °C 30 mi - 150° 150° 8 kt METAR CYYC 270200Z 15008KT 30SM FEW120 SCT280 20/04 A3008 RMK AC1CI2 SLP196 DENSITY ALT 4800FT
19:00
V
22 °C 15 mi 30.000 ft 160° 160° 10 kt METAR CYYC 270100Z 16010KT 15SM FEW200 BKN300 22/03 A3008 RMK CC1CI5 SLP194 DENSITY ALT 5100FT
18:00
V
24 °C 15 mi - 170° 170° 10 kt METAR CYYC 270000Z 17010KT 15SM FEW200 SCT300 24/03 A3010 RMK CC1CI3 CC TR SLP197 DENSITY ALT 5300FT
17:00
V
25 °C 15 mi - 190° 190° 11 - 17 kt METAR CYYC 262300Z 19011G17KT 15SM FEW200 FEW300 25/03 A3011 RMK CC1CI1 SLP201 DENSITY ALT 5400FT
16:00
V
25 °C 15 mi - 190° 190° 9 kt METAR CYYC 262200Z 19009KT 15SM SCT300 25/04 A3013 RMK CI3 SLP207 DENSITY ALT 5300FT
15:00
V
24 °C 40 mi - 190° 190° 9 kt METAR CYYC 262100Z 19009KT 120V210 40SM FEW200 SCT300 24/05 A3015 RMK CC1CI3 CC TR SLP215 DENSITY ALT 5300FT
14:00
V
23 °C 15 mi - 190° 190° 7 kt METAR CYYC 262000Z 19007KT 120V230 15SM FEW300 23/04 A3017 RMK CI2 SLP225 DENSITY ALT 5100FT
13:00
V
22 °C 40 mi - Var Var 2 kt METAR CYYC 261900Z VRB02KT 40SM FEW300 22/05 A3020 RMK CI2 SLP234 DENSITY ALT 4900FT
12:00
V
20 °C 40 mi 30.000 ft 190° 190° 3 kt METAR CYYC 261800Z 19003KT 160V230 40SM BKN300 20/05 A3021 RMK CI5 SLP240 DENSITY ALT 4700FT
11:00
V
18 °C 40 mi - 210° 210° 3 kt METAR CYYC 261700Z 21003KT 40SM SCT300 18/05 A3023 RMK CI3 SLP241 DENSITY ALT 4500FT
10:00
V
15 °C 40 mi - 200° 200° 3 kt METAR CYYC 261600Z 20003KT 180V240 40SM FEW300 15/05 A3023 RMK CI2 SLP244 DENSITY ALT 4100FT
09:00
V
12 °C 40 mi - Var Var 2 kt METAR CYYC 261500Z VRB02KT 40SM FEW300 12/05 A3022 RMK CI2 SLP244 DENSITY ALT 3800FT
08:00
V
9 °C 40 mi - 170° 170° 3 kt METAR CYYC 261400Z 17003KT 40SM FEW300 09/04 A3021 RMK CI1 SLP243
07:00
V
8 °C 20 mi - Var 000° 0 kt METAR CYYC 261300Z 00000KT 20SM FEW230 08/03 A3020 RMK CI1 CONTRAILS SLP237
06:00
V
7 °C 15 mi - 060° 060° 2 kt METAR CYYC 261200Z 06002KT 15SM FEW230 07/03 A3019 RMK CI1 CI TR SLP231
05:00
V
8 °C 15 mi - Var 000° 0 kt METAR CYYC 261100Z 00000KT 15SM FEW220 08/02 A3018 RMK CI1 CI TR SLP228
04:00
V
9 °C 15 mi - Var 000° 0 kt METAR CYYC 261000Z 00000KT 15SM FEW220 09/01 A3018 RMK CI1 CI TR SLP228
03:00
V
8 °C 15 mi - Var Var 2 kt METAR CYYC 260900Z VRB02KT 15SM SKC 08/01 A3018 RMK SLP230
02:00
V
8 °C 15 mi - Var 000° 0 kt METAR CYYC 260800Z 00000KT 15SM SKC 08/01 A3018 RMK SLP230
01:00
V
9 °C 15 mi - Var 000° 0 kt METAR CYYC 260700Z 00000KT 15SM SKC 09/01 A3016 RMK SLP226
00:00
V
10 °C 15 mi - 330° 330° 3 kt METAR CYYC 260600Z 33003KT 300V040 15SM SKC 10/01 A3016 RMK SLP227

25. September 2022

Uhrzeit Code Wetter Temp. Sichtweite Wolkendecke Wind METAR/SPECI
23:00
V
14 °C 15 mi - 180° 180° 3 kt METAR CYYC 260500Z 18003KT 15SM SKC 14/01 A3015 RMK SLP218 DENSITY ALT 4200FT
22:00
V
16 °C 15 mi - 190° 190° 4 kt METAR CYYC 260400Z 19004KT 15SM SKC 16/00 A3014 RMK SLP215 DENSITY ALT 4300FT
21:00
V
17 °C 15 mi - 200° 200° 4 kt METAR CYYC 260300Z 20004KT 15SM FEW230 17/M00 A3014 RMK CI1 CI TR SLP218 DENSITY ALT 4500FT
20:00
V
18 °C 30 mi - 130° 130° 8 kt METAR CYYC 260200Z 13008KT 30SM SCT230 18/00 A3013 RMK CI3 CONTRAILS SLP218 DENSITY ALT 4600FT
19:00
V
20 °C 15 mi 30.000 ft 130° 130° 7 - 15 kt METAR CYYC 260100Z 13007G15KT 15SM FEW200 BKN300 20/00 A3013 RMK CC1CI5 SLP216 DENSITY ALT 4800FT
18:00
V
22 °C 15 mi 30.000 ft 150° 150° 5 kt METAR CYYC 260000Z 15005KT 080V160 15SM BKN300 22/00 A3014 RMK CI7 SLP215 DENSITY ALT 5100FT
17:00
V
23 °C 15 mi - 050° 050° 3 kt METAR CYYC 252300Z 05003KT 010V170 15SM FEW200 SCT300 23/00 A3015 RMK CC1CI3 SLP215 DENSITY ALT 5100FT
16:00
V
22 °C 15 mi 30.000 ft 150° 150° 4 kt METAR CYYC 252200Z 15004KT 110V200 15SM BKN300 22/00 A3016 RMK CI5 SLP224 DENSITY ALT 5000FT
15:00
V
21 °C 15 mi 30.000 ft 130° 130° 3 kt METAR CYYC 252100Z 13003KT 080V170 15SM BKN300 21/M00 A3016 RMK CI6 SLP222 DENSITY ALT 4900FT
14:00
V
20 °C 40 mi - 190° 190° 4 kt METAR CYYC 252000Z 19004KT 100V220 40SM FEW300 20/00 A3018 RMK CI2 SLP230 DENSITY ALT 4800FT
Ältere Daten

Wir und Dritte verfolgen dein Internetverhalten auf unserer Website mit Cookies. Wenn du fortfährst, gehen wir davon aus, dass du mit unserer Cookie-Richtlinie einverstanden bist. Mehr erfahren